Time;durP1;ratioP1;P1;durP2;ratioP2;P2;SDS_P1;SDS_P2;PMS_P1;PMS_P2;Temp;Humidity;BMP_temperature;BMP_pressure;BME280_temperature;BME280_humidity;BME280_pressure;Samples;Min_cycle;Max_cycle;Signal;HPM_P1;HPM_P2
2021/11/07 00:06:51;;;;;;;8.80;3.80;;;22.50;99.90;;;;;;5066472;28;20183;-71
2021/11/07 00:09:33;;;;;;;9.23;3.20;;;22.80;99.90;;;;;;5061888;28;20228;-72
2021/11/07 00:12:10;;;;;;;12.50;3.10;;;23.00;99.90;;;;;;5070587;28;20223;-70
2021/11/07 00:14:38;;;;;;;8.93;3.07;;;23.30;99.90;;;;;;5069640;28;20240;-70
2021/11/07 00:17:05;;;;;;;7.07;2.60;;;23.30;99.90;;;;;;5068696;28;20183;-71
2021/11/07 00:19:39;;;;;;;11.73;3.07;;;23.40;99.90;;;;;;5070319;28;20218;-71
2021/11/07 00:22:22;;;;;;;9.17;3.03;;;23.50;99.90;;;;;;5061100;28;20242;-70
2021/11/07 00:25:17;;;;;;;11.03;3.70;;;23.70;99.90;;;;;;5071304;28;20190;-69
2021/11/07 00:27:49;;;;;;;7.90;2.70;;;23.90;99.90;;;;;;5073374;28;20183;-70
2021/11/07 00:30:47;;;;;;;8.03;2.97;;;24.30;99.90;;;;;;5072664;28;20191;-70
2021/11/07 00:36:13;;;;;;;5.67;2.30;;;24.20;99.90;;;;;;5051700;28;20175;-72
2021/11/07 00:38:53;;;;;;;8.40;2.30;;;24.40;99.90;;;;;;5052311;28;20168;-70
2021/11/07 00:41:31;;;;;;;7.23;2.27;;;24.40;99.90;;;;;;5062576;28;20564;-71
2021/11/07 00:44:08;;;;;;;8.30;2.30;;;24.40;99.90;;;;;;5077865;28;20191;-72
2021/11/07 00:46:47;;;;;;;8.00;2.13;;;24.50;99.90;;;;;;5071164;28;20228;-72
2021/11/07 00:49:25;;;;;;;6.33;2.30;;;24.50;99.90;;;;;;5093203;28;20625;-69
2021/11/07 00:54:40;;;;;;;5.73;1.67;;;24.40;99.90;;;;;;5095754;28;20178;-71
2021/11/07 00:59:59;;;;;;;3.50;1.50;;;24.20;99.90;;;;;;5095465;28;20162;-72
2021/11/07 01:02:33;;;;;;;2.73;1.40;;;24.20;99.90;;;;;;5095750;28;20300;-74
2021/11/07 01:05:06;;;;;;;6.13;1.80;;;24.10;99.90;;;;;;5095503;28;20171;-73
2021/11/07 01:07:34;;;;;;;4.50;1.50;;;24.10;99.90;;;;;;5095952;28;20254;-72
2021/11/07 01:10:01;;;;;;;5.67;1.60;;;24.30;99.90;;;;;;5095257;28;20596;-72
2021/11/07 01:12:29;;;;;;;2.00;1.40;;;24.50;99.90;;;;;;5095169;28;20808;-72
2021/11/07 01:14:59;;;;;;;4.63;1.70;;;24.30;99.90;;;;;;5055313;28;20183;-73
2021/11/07 01:17:26;;;;;;;5.13;1.57;;;24.00;99.90;;;;;;5055105;28;20183;-74
2021/11/07 01:19:55;;;;;;;4.73;1.90;;;23.90;99.90;;;;;;5087314;28;20269;-74
2021/11/07 01:22:34;;;;;;;4.77;1.77;;;23.90;99.90;;;;;;5095606;28;20297;-72
2021/11/07 01:25:02;;;;;;;4.07;2.07;;;23.80;99.90;;;;;;5095381;28;20590;-72
2021/11/07 01:27:32;;;;;;;5.53;2.33;;;23.80;99.90;;;;;;5094760;28;20247;-77
2021/11/07 01:30:03;;;;;;;4.10;1.40;;;23.80;99.90;;;;;;5094866;28;20199;-72
2021/11/07 01:32:38;;;;;;;4.73;2.23;;;23.80;99.90;;;;;;5095458;28;20257;-73
2021/11/07 01:37:41;;;;;;;8.23;2.20;;;24.10;99.90;;;;;;5095044;28;20179;-71
2021/11/07 01:40:15;;;;;;;5.43;1.77;;;24.30;99.90;;;;;;5094936;28;20185;-72
2021/11/07 01:42:52;;;;;;;4.57;1.90;;;24.40;99.90;;;;;;5092650;28;20233;-72
2021/11/07 01:45:35;;;;;;;7.47;1.70;;;24.80;99.90;;;;;;5074730;28;20190;-73
2021/11/07 01:50:39;;;;;;;5.03;1.93;;;25.50;99.90;;;;;;5095170;28;20253;-71
2021/11/07 01:53:18;;;;;;;4.03;1.90;;;25.40;99.90;;;;;;5094388;28;20175;-72
2021/11/07 01:55:46;;;;;;;3.33;2.10;;;25.40;99.90;;;;;;5094374;28;20228;-77
2021/11/07 01:58:14;;;;;;;4.40;1.70;;;25.20;99.90;;;;;;5094100;28;20190;-73
2021/11/07 02:00:42;;;;;;;3.20;1.90;;;25.20;99.90;;;;;;5093537;28;20209;-71
2021/11/07 02:03:11;;;;;;;3.70;1.90;;;25.10;99.90;;;;;;5094468;28;20687;-72
2021/11/07 02:05:39;;;;;;;4.57;1.77;;;24.90;99.90;;;;;;5094468;28;20572;-72
2021/11/07 02:08:07;;;;;;;3.33;1.80;;;24.90;99.90;;;;;;5094507;28;20190;-72
2021/11/07 02:10:36;;;;;;;3.70;2.00;;;24.60;99.90;;;;;;5094807;28;20175;-74
2021/11/07 02:13:05;;;;;;;5.03;1.97;;;24.50;99.90;;;;;;5089011;28;20231;-72
2021/11/07 02:15:33;;;;;;;5.00;2.03;;;24.20;99.90;;;;;;5082504;28;20493;-72
2021/11/07 02:18:01;;;;;;;6.50;2.53;;;24.10;99.90;;;;;;5093853;28;20257;-72
2021/11/07 02:20:30;;;;;;;5.80;2.20;;;23.80;99.90;;;;;;5094426;28;20167;-72
2021/11/07 02:23:00;;;;;;;8.27;2.37;;;23.90;99.90;;;;;;5093772;28;20241;-73
2021/11/07 02:25:27;;;;;;;16.30;2.97;;;23.80;99.90;;;;;;5093980;28;20232;-73
2021/11/07 02:27:58;;;;;;;8.03;2.73;;;23.70;99.90;;;;;;5093508;28;20206;-70
2021/11/07 02:30:25;;;;;;;5.03;2.30;;;23.60;99.90;;;;;;5093929;28;20644;-69
2021/11/07 02:32:54;;;;;;;7.17;2.70;;;23.40;99.90;;;;;;5094048;28;20273;-71
2021/11/07 02:35:22;;;;;;;4.73;2.93;;;23.30;99.90;;;;;;5093883;28;20260;-69
2021/11/07 02:37:49;;;;;;;7.13;3.10;;;23.10;99.90;;;;;;5093897;28;20187;-71
2021/11/07 02:40:18;;;;;;;6.50;2.70;;;23.10;99.90;;;;;;5094098;28;20179;-71
2021/11/07 02:42:46;;;;;;;5.30;2.33;;;23.20;99.90;;;;;;5073902;28;20305;-70
2021/11/07 02:45:17;;;;;;;4.43;2.30;;;22.90;99.90;;;;;;5073664;28;20172;-71
2021/11/07 02:47:48;;;;;;;4.40;2.07;;;22.90;99.90;;;;;;5089108;28;20208;-69
2021/11/07 02:50:18;;;;;;;4.03;1.43;;;22.80;99.90;;;;;;5093739;28;20179;-70
2021/11/07 02:52:46;;;;;;;4.03;1.63;;;22.70;99.90;;;;;;5093787;28;20333;-69
2021/11/07 02:55:14;;;;;;;2.83;1.80;;;22.60;99.90;;;;;;5093656;28;20183;-68
2021/11/07 02:57:42;;;;;;;4.43;1.93;;;22.40;99.90;;;;;;5093095;28;20182;-74
2021/11/07 03:00:10;;;;;;;4.20;2.33;;;22.30;99.90;;;;;;5093724;28;20213;-69
2021/11/07 03:02:38;;;;;;;4.67;2.33;;;22.10;99.90;;;;;;5093474;28;20298;-71
2021/11/07 03:05:11;;;;;;;7.03;3.30;;;22.00;99.90;;;;;;5093603;28;20179;-70
2021/11/07 03:07:42;;;;;;;3.13;2.10;;;21.90;99.90;;;;;;5093215;28;20206;-70
2021/11/07 03:10:11;;;;;;;4.47;2.20;;;21.80;99.90;;;;;;5093537;28;20175;-69
2021/11/07 03:12:39;;;;;;;7.20;2.47;;;21.60;99.90;;;;;;5091292;28;20226;-68
2021/11/07 03:15:11;;;;;;;6.23;2.13;;;21.40;99.90;;;;;;5090861;28;20262;-70
2021/11/07 03:17:39;;;;;;;8.27;1.97;;;21.20;99.90;;;;;;5092727;28;20240;-65
2021/11/07 03:20:10;;;;;;;3.60;1.60;;;20.90;99.90;;;;;;5093044;28;20537;-66
2021/11/07 03:22:38;;;;;;;6.60;2.00;;;20.80;99.90;;;;;;5093019;28;20228;-66
2021/11/07 03:25:06;;;;;;;3.07;1.80;;;20.70;99.90;;;;;;5093219;28;20183;-66
2021/11/07 03:27:41;;;;;;;6.43;2.63;;;20.60;99.90;;;;;;5092828;28;20266;-67
2021/11/07 03:30:43;;;;;;;5.73;2.07;;;20.70;99.90;;;;;;5093157;28;20166;-67
2021/11/07 03:33:25;;;;;;;5.87;1.90;;;20.70;99.90;;;;;;5092970;28;20533;-67
2021/11/07 03:35:54;;;;;;;7.70;2.97;;;20.70;99.90;;;;;;5092804;28;20177;-67
2021/11/07 03:38:23;;;;;;;6.10;2.10;;;20.60;99.90;;;;;;5093061;28;20177;-66
2021/11/07 03:40:51;;;;;;;8.47;2.63;;;20.50;99.90;;;;;;5092646;28;20262;-66
2021/11/07 03:43:18;;;;;;;5.70;2.60;;;20.50;99.90;;;;;;5085613;28;20183;-67
2021/11/07 03:45:46;;;;;;;6.83;2.50;;;20.50;99.90;;;;;;5088538;28;20625;-66
2021/11/07 03:48:13;;;;;;;8.90;2.80;;;20.40;99.90;;;;;;5092711;28;20214;-65
2021/11/07 03:50:44;;;;;;;7.00;2.73;;;20.40;99.90;;;;;;5092614;28;20253;-66
2021/11/07 03:53:12;;;;;;;8.03;2.03;;;20.40;99.90;;;;;;5092769;28;20186;-65
2021/11/07 03:55:39;;;;;;;4.80;2.20;;;20.40;99.90;;;;;;5092443;28;20174;-66
2021/11/07 03:58:06;;;;;;;4.83;2.20;;;20.30;99.90;;;;;;5092354;28;20193;-65
2021/11/07 04:00:34;;;;;;;7.67;2.60;;;20.30;99.90;;;;;;5092385;28;20214;-68
2021/11/07 04:03:01;;;;;;;7.63;2.37;;;20.20;99.90;;;;;;5092713;28;20217;-67
2021/11/07 04:05:28;;;;;;;3.37;1.80;;;20.20;99.90;;;;;;5092403;28;20178;-68
2021/11/07 04:07:56;;;;;;;7.90;2.53;;;20.20;99.90;;;;;;5092359;28;20197;-69
2021/11/07 04:10:24;;;;;;;4.57;1.87;;;20.20;99.90;;;;;;5092309;28;20182;-69
2021/11/07 04:12:52;;;;;;;6.37;1.97;;;20.10;99.90;;;;;;5090835;28;20786;-66
2021/11/07 04:15:20;;;;;;;7.23;2.43;;;20.20;99.90;;;;;;5092250;28;20652;-67
2021/11/07 04:17:48;;;;;;;10.43;2.40;;;20.20;99.90;;;;;;5092089;28;20509;-66
2021/11/07 04:20:15;;;;;;;4.77;1.80;;;20.40;99.90;;;;;;5092380;28;20251;-66
2021/11/07 04:22:43;;;;;;;9.73;1.90;;;20.20;99.90;;;;;;5092462;28;20218;-66
2021/11/07 04:25:11;;;;;;;4.93;1.57;;;20.30;99.90;;;;;;5096033;28;20176;-65
2021/11/07 04:27:39;;;;;;;5.87;1.53;;;20.30;99.90;;;;;;5095862;28;20282;-67
2021/11/07 04:30:07;;;;;;;2.77;1.33;;;20.60;99.90;;;;;;5095912;28;20170;-65
2021/11/07 04:32:36;;;;;;;6.90;2.53;;;20.80;99.90;;;;;;5096737;28;20178;-65
2021/11/07 04:35:04;;;;;;;4.03;1.10;;;21.10;99.90;;;;;;5096469;28;20269;-66
2021/11/07 04:37:32;;;;;;;6.00;1.50;;;21.10;99.90;;;;;;5095898;28;20174;-65
2021/11/07 04:40:00;;;;;;;8.73;2.00;;;21.10;99.90;;;;;;5096053;28;20228;-65
2021/11/07 04:42:27;;;;;;;4.87;1.87;;;21.10;99.90;;;;;;5086253;28;20223;-65
2021/11/07 04:44:55;;;;;;;4.20;1.50;;;21.20;99.90;;;;;;5082372;28;20279;-66
2021/11/07 04:47:22;;;;;;;4.13;1.67;;;21.30;99.90;;;;;;5096021;28;20671;-67
2021/11/07 04:49:53;;;;;;;3.73;1.90;;;21.30;99.90;;;;;;5095662;28;20167;-66
2021/11/07 04:52:21;;;;;;;4.27;1.50;;;21.50;99.90;;;;;;5086911;28;20183;-66
2021/11/07 04:54:50;;;;;;;1.83;1.43;;;21.40;99.90;;;;;;5082741;28;20519;-67
2021/11/07 04:57:18;;;;;;;3.27;1.70;;;21.40;99.90;;;;;;5077222;28;20183;-67
2021/11/07 04:59:45;;;;;;;3.60;1.77;;;21.40;99.90;;;;;;5073264;28;20175;-67
2021/11/07 05:02:13;;;;;;;2.23;1.30;;;21.40;99.90;;;;;;5074560;28;20207;-67
2021/11/07 05:04:41;;;;;;;4.30;1.60;;;21.40;99.90;;;;;;5074284;28;20649;-68
2021/11/07 05:07:09;;;;;;;2.33;1.20;;;21.40;99.90;;;;;;5074899;28;20217;-67
2021/11/07 05:09:36;;;;;;;2.30;1.40;;;21.40;99.90;;;;;;5074709;28;20191;-68
2021/11/07 05:12:04;;;;;;;2.90;1.47;;;21.30;99.90;;;;;;5074642;28;20215;-69
2021/11/07 05:14:32;;;;;;;2.53;1.40;;;21.30;99.90;;;;;;5072930;28;20176;-69
2021/11/07 05:16:59;;;;;;;2.73;1.23;;;21.30;99.90;;;;;;5071938;28;20662;-69
2021/11/07 05:19:27;;;;;;;2.97;1.30;;;21.30;99.90;;;;;;5074791;28;20583;-69
2021/11/07 05:21:54;;;;;;;2.63;1.10;;;21.30;99.90;;;;;;5071609;28;20241;-68
2021/11/07 05:24:22;;;;;;;3.80;1.10;;;21.20;99.90;;;;;;5073950;28;20645;-70
2021/11/07 05:26:49;;;;;;;4.80;2.03;;;21.20;99.90;;;;;;5074781;28;20191;-69
2021/11/07 05:29:16;;;;;;;1.87;1.30;;;21.30;99.90;;;;;;5074270;28;20209;-70
2021/11/07 05:31:44;;;;;;;3.93;1.10;;;21.30;99.90;;;;;;5073971;28;20195;-69
2021/11/07 05:34:11;;;;;;;4.63;0.80;;;21.20;99.90;;;;;;5074474;28;20566;-75
2021/11/07 05:36:41;;;;;;;2.17;1.07;;;21.20;99.90;;;;;;5074486;28;20253;-72
2021/11/07 05:39:09;;;;;;;1.63;0.97;;;21.10;99.90;;;;;;5073327;28;20179;-70
2021/11/07 05:41:36;;;;;;;4.27;1.43;;;21.10;99.90;;;;;;5074305;28;20625;-77
2021/11/07 05:44:03;;;;;;;3.77;1.07;;;21.20;99.90;;;;;;5073507;28;20187;-76
2021/11/07 05:46:32;;;;;;;1.30;0.87;;;21.20;99.90;;;;;;5074687;28;20179;-72
2021/11/07 05:48:59;;;;;;;2.73;1.00;;;21.10;99.90;;;;;;5078600;28;20224;-71
2021/11/07 05:51:27;;;;;;;2.30;1.10;;;21.10;99.90;;;;;;5080819;28;20273;-77
2021/11/07 05:53:54;;;;;;;3.97;1.30;;;21.10;99.90;;;;;;5080540;28;20187;-72
2021/11/07 05:56:22;;;;;;;2.33;1.10;;;21.20;99.90;;;;;;5074258;28;20179;-71
2021/11/07 05:58:51;;;;;;;6.90;1.20;;;21.30;99.90;;;;;;5073733;28;20171;-73
2021/11/07 06:01:18;;;;;;;3.53;1.17;;;21.20;99.90;;;;;;5074319;28;20207;-73
2021/11/07 06:03:46;;;;;;;2.10;1.13;;;21.30;99.90;;;;;;5074234;28;20183;-73
2021/11/07 06:06:13;;;;;;;3.27;1.00;;;21.20;99.90;;;;;;5074155;28;20179;-76
2021/11/07 06:08:41;;;;;;;1.30;1.00;;;21.20;99.90;;;;;;5074282;28;20183;-73
2021/11/07 06:11:09;;;;;;;1.60;0.97;;;21.20;99.90;;;;;;5073751;28;20180;-73
2021/11/07 06:13:36;;;;;;;1.90;1.10;;;21.20;99.90;;;;;;5073433;28;20299;-72
2021/11/07 06:16:04;;;;;;;2.73;1.00;;;21.20;99.90;;;;;;5073928;28;20216;-75
2021/11/07 06:18:32;;;;;;;2.10;1.10;;;21.20;99.90;;;;;;5074144;28;20194;-76
2021/11/07 06:21:00;;;;;;;3.00;1.30;;;21.10;99.90;;;;;;5072639;28;20641;-74
2021/11/07 06:23:27;;;;;;;5.50;1.47;;;21.10;99.90;;;;;;5073556;28;20221;-72
2021/11/07 06:25:55;;;;;;;1.53;1.10;;;21.00;99.90;;;;;;5073072;28;20193;-75
2021/11/07 06:28:22;;;;;;;5.43;1.30;;;21.10;99.90;;;;;;5073178;28;20263;-76
2021/11/07 06:30:50;;;;;;;2.23;1.30;;;21.10;99.90;;;;;;5073840;28;20187;-77
2021/11/07 06:33:17;;;;;;;4.83;1.30;;;21.10;99.90;;;;;;5072647;28;20191;-73
2021/11/07 06:35:45;;;;;;;3.70;1.00;;;21.10;99.90;;;;;;5073011;28;20702;-73
2021/11/07 06:38:13;;;;;;;2.17;1.20;;;21.10;99.90;;;;;;5072821;28;20557;-74
2021/11/07 06:40:41;;;;;;;2.90;1.20;;;21.00;99.90;;;;;;5073222;28;20194;-75
2021/11/07 06:43:08;;;;;;;2.27;1.23;;;21.10;99.90;;;;;;5065666;28;20215;-72
2021/11/07 06:45:36;;;;;;;3.17;1.60;;;21.00;99.90;;;;;;5062320;28;20262;-73
2021/11/07 06:48:04;;;;;;;2.93;1.10;;;20.90;99.90;;;;;;5072649;28;20187;-73
2021/11/07 06:50:32;;;;;;;3.37;1.50;;;20.90;99.90;;;;;;5072359;28;20660;-75
2021/11/07 06:53:00;;;;;;;3.33;1.43;;;20.90;99.90;;;;;;5075660;28;20281;-73
2021/11/07 06:55:28;;;;;;;1.97;1.13;;;20.90;99.90;;;;;;5075716;28;20214;-72
2021/11/07 06:57:55;;;;;;;3.03;1.60;;;20.90;99.90;;;;;;5084348;28;20604;-74
2021/11/07 07:00:27;;;;;;;5.97;1.80;;;20.90;99.90;;;;;;5086487;28;20190;-71
2021/11/07 07:02:54;;;;;;;4.13;1.60;;;20.90;99.90;;;;;;5079032;28;20222;-73
2021/11/07 07:05:22;;;;;;;3.90;1.73;;;20.80;99.90;;;;;;5069426;28;20506;-73
2021/11/07 07:07:57;;;;;;;3.50;1.63;;;20.70;99.90;;;;;;5071244;28;20190;-73
2021/11/07 07:10:29;;;;;;;7.27;1.60;;;20.70;99.90;;;;;;5072782;28;20261;-73
2021/11/07 07:13:05;;;;;;;3.53;1.80;;;20.60;99.90;;;;;;5072470;28;20226;-73
2021/11/07 07:15:43;;;;;;;3.07;1.77;;;20.60;99.90;;;;;;5072395;28;20179;-74
2021/11/07 07:18:27;;;;;;;4.53;1.73;;;20.60;99.90;;;;;;5071239;28;20677;-73
2021/11/07 07:24:06;;;;;;;4.23;1.70;;;20.60;99.90;;;;;;5072218;28;20194;-73
2021/11/07 07:26:49;;;;;;;4.20;1.60;;;20.70;99.90;;;;;;5072337;28;20644;-72
2021/11/07 07:31:59;;;;;;;2.17;1.20;;;20.70;99.90;;;;;;5071649;28;20240;-75
2021/11/07 07:34:27;;;;;;;3.43;1.73;;;20.60;99.90;;;;;;5072543;28;20179;-74
2021/11/07 07:36:55;;;;;;;2.37;1.60;;;20.60;99.90;;;;;;5071696;28;20182;-73
2021/11/07 07:39:23;;;;;;;3.73;2.23;;;20.60;99.90;;;;;;5072425;28;20190;-74
2021/11/07 07:41:51;;;;;;;3.93;1.60;;;20.60;99.90;;;;;;5071805;28;20194;-72
2021/11/07 07:44:18;;;;;;;4.40;1.73;;;20.60;99.90;;;;;;5072111;28;20228;-72
2021/11/07 07:46:46;;;;;;;5.37;2.00;;;20.60;99.90;;;;;;5072450;28;20183;-73
2021/11/07 07:49:16;;;;;;;2.33;1.73;;;20.60;99.90;;;;;;5077852;28;20193;-73
2021/11/07 07:51:45;;;;;;;4.20;1.70;;;20.60;99.90;;;;;;5080692;28;20178;-72
2021/11/07 07:54:13;;;;;;;4.83;2.10;;;20.50;99.90;;;;;;5083789;28;20182;-72
2021/11/07 07:56:41;;;;;;;7.10;2.53;;;20.60;99.90;;;;;;5075187;28;20178;-72
2021/11/07 07:59:08;;;;;;;6.43;2.30;;;20.50;99.90;;;;;;5088388;28;20329;-71
2021/11/07 08:01:35;;;;;;;4.63;2.60;;;20.60;99.90;;;;;;5068567;28;20221;-72
2021/11/07 08:04:04;;;;;;;5.20;2.30;;;20.60;99.90;;;;;;5083627;28;20175;-73
2021/11/07 08:06:32;;;;;;;5.07;2.27;;;20.60;99.90;;;;;;5078994;28;20244;-72
2021/11/07 08:09:00;;;;;;;3.30;2.10;;;20.60;99.90;;;;;;5087113;28;20249;-73
2021/11/07 08:11:27;;;;;;;3.53;1.90;;;20.60;99.90;;;;;;5085219;28;20648;-72
2021/11/07 08:13:54;;;;;;;5.57;3.10;;;20.60;99.90;;;;;;5079887;28;20206;-72
2021/11/07 08:16:26;;;;;;;5.83;3.87;;;20.60;99.90;;;;;;5092219;28;20186;-72
2021/11/07 08:18:55;;;;;;;7.73;6.90;;;20.60;99.90;;;;;;5087361;28;20620;-72
2021/11/07 08:21:25;;;;;;;8.73;4.13;;;20.60;99.90;;;;;;5078028;28;20209;-73
2021/11/07 08:23:54;;;;;;;4.80;3.30;;;20.60;99.90;;;;;;5071871;28;20191;-71
2021/11/07 08:26:22;;;;;;;6.73;3.57;;;20.60;99.90;;;;;;5058636;28;20227;-72
2021/11/07 08:28:53;;;;;;;6.20;2.97;;;20.60;99.90;;;;;;5066728;28;20530;-72
2021/11/07 08:31:26;;;;;;;5.73;2.90;;;20.50;99.90;;;;;;5062878;28;20191;-72
2021/11/07 08:33:54;;;;;;;7.90;3.03;;;20.50;99.90;;;;;;5071854;28;20183;-72
2021/11/07 08:36:26;;;;;;;5.50;3.30;;;20.60;99.90;;;;;;5071713;28;20215;-72
2021/11/07 08:39:00;;;;;;;5.50;3.13;;;20.50;99.90;;;;;;5071915;28;20195;-72
2021/11/07 08:41:29;;;;;;;6.83;3.43;;;20.50;99.90;;;;;;5059551;28;20306;-72
2021/11/07 09:00:33;;;;;;;4.57;2.73;;;20.40;99.90;;;;;;5078553;28;20714;-72
2021/11/07 09:03:15;;;;;;;4.80;2.90;;;20.30;99.90;;;;;;5082490;28;20222;-73
2021/11/07 09:06:21;;;;;;;4.20;2.27;;;20.40;99.90;;;;;;5091727;28;20179;-72
2021/11/07 09:08:52;;;;;;;5.47;2.73;;;20.30;99.90;;;;;;5092005;28;20182;-72
2021/11/07 09:11:21;;;;;;;3.67;2.17;;;20.30;99.90;;;;;;5095342;28;20179;-72
2021/11/07 09:13:49;;;;;;;4.60;2.33;;;20.30;99.90;;;;;;5082367;28;20685;-73
2021/11/07 09:16:17;;;;;;;10.40;3.30;;;20.30;99.90;;;;;;5094599;28;20174;-73
2021/11/07 09:18:44;;;;;;;8.80;3.73;;;20.30;99.90;;;;;;5094565;28;20540;-73
2021/11/07 09:21:22;;;;;;;6.20;3.83;;;20.30;99.90;;;;;;5084149;28;20183;-74
2021/11/07 09:23:56;;;;;;;6.60;3.80;;;20.20;99.90;;;;;;5094127;28;20193;-73
2021/11/07 09:26:43;;;;;;;7.27;3.83;;;20.20;99.90;;;;;;5091766;28;20179;-72
2021/11/07 09:29:21;;;;;;;6.00;3.30;;;20.20;99.90;;;;;;5094822;28;20190;-71
2021/11/07 09:32:10;;;;;;;5.03;3.80;;;20.10;99.90;;;;;;5088972;28;20710;-68
2021/11/07 09:34:54;;;;;;;8.37;3.70;;;20.10;99.90;;;;;;5091090;28;20178;-68
2021/11/07 09:37:44;;;;;;;5.97;3.73;;;20.10;99.90;;;;;;5095177;28;20193;-65
2021/11/07 09:40:14;;;;;;;6.13;3.03;;;20.00;99.90;;;;;;5081791;28;20189;-67
2021/11/07 09:47:51;;;;;;;8.93;2.90;;;19.80;99.90;;;;;;5088611;28;20649;-64
2021/11/07 09:50:22;;;;;;;5.80;2.67;;;19.80;99.90;;;;;;5093812;28;20210;-64
2021/11/07 09:52:52;;;;;;;6.93;2.60;;;19.70;99.90;;;;;;5094807;28;20182;-64
2021/11/07 09:55:22;;;;;;;5.87;3.47;;;19.60;99.90;;;;;;5090709;28;20178;-67
2021/11/07 09:57:52;;;;;;;11.03;3.20;;;19.60;99.90;;;;;;5094419;28;20183;-64
2021/11/07 10:00:24;;;;;;;9.27;2.80;;;19.50;99.90;;;;;;5094297;28;20548;-64
2021/11/07 10:02:52;;;;;;;7.50;2.50;;;19.50;99.90;;;;;;5094640;28;20318;-65
2021/11/07 10:05:20;;;;;;;10.20;3.50;;;19.40;99.90;;;;;;5094572;28;20178;-65
2021/11/07 10:08:02;;;;;;;11.00;2.77;;;19.50;99.90;;;;;;5088845;28;20183;-66
2021/11/07 10:10:34;;;;;;;13.33;3.90;;;19.40;99.90;;;;;;5078958;28;20187;-63
2021/11/07 10:13:17;;;;;;;11.03;3.40;;;19.50;99.90;;;;;;5061581;28;20235;-63
2021/11/07 10:15:48;;;;;;;10.13;3.40;;;19.50;99.90;;;;;;5079567;28;20244;-63
2021/11/07 10:18:54;;;;;;;11.20;3.47;;;19.50;99.90;;;;;;5090159;28;20182;-63
2021/11/07 10:21:27;;;;;;;6.90;2.70;;;19.50;99.90;;;;;;5091278;28;20205;-64
2021/11/07 10:24:16;;;;;;;6.33;2.50;;;19.40;99.90;;;;;;5094164;28;20179;-65
2021/11/07 10:26:50;;;;;;;9.20;2.83;;;19.40;99.90;;;;;;5067709;28;20535;-65
2021/11/07 10:29:49;;;;;;;13.80;3.47;;;19.40;99.90;;;;;;5093489;28;20197;-65
2021/11/07 10:32:34;;;;;;;11.90;3.70;;;19.40;99.90;;;;;;5072330;28;20175;-66
2021/11/07 10:38:21;;;;;;;12.37;3.40;;;19.30;99.90;;;;;;5071565;28;20224;-67
2021/11/07 10:41:21;;;;;;;13.00;3.60;;;19.30;99.90;;;;;;5073774;28;20183;-66
2021/11/07 10:52:25;;;;;;;14.77;3.63;;;19.20;99.90;;;;;;5080790;28;20233;-68
2021/11/07 10:54:53;;;;;;;13.23;3.30;;;19.20;99.90;;;;;;5073162;28;20191;-68
2021/11/07 10:57:25;;;;;;;12.90;2.87;;;19.10;99.90;;;;;;5072689;28;20183;-68
2021/11/07 11:00:10;;;;;;;7.80;3.53;;;19.20;99.90;;;;;;5071377;28;20187;-69
2021/11/07 11:02:44;;;;;;;15.77;4.13;;;19.20;99.90;;;;;;5072840;28;20223;-69
2021/11/07 11:05:16;;;;;;;8.00;2.53;;;19.20;99.90;;;;;;5073023;28;20695;-70
2021/11/07 11:08:04;;;;;;;12.20;2.93;;;19.20;99.90;;;;;;5058141;28;20192;-70
2021/11/07 11:21:48;;;;;;;8.97;2.97;;;19.00;99.90;;;;;;5073271;28;20202;-71
2021/11/07 11:24:54;;;;;;;10.90;2.83;;;19.00;99.90;;;;;;5060306;28;20225;-70
2021/11/07 11:27:44;;;;;;;18.73;3.10;;;18.90;99.90;;;;;;5060837;28;20179;-69
2021/11/07 11:33:00;;;;;;;14.40;3.37;;;18.90;99.90;;;;;;5072657;28;20179;-69
2021/11/07 11:35:33;;;;;;;13.37;3.80;;;18.90;99.90;;;;;;5072912;28;20591;-69
2021/11/07 11:43:12;;;;;;;11.47;3.27;;;18.90;99.90;;;;;;5072254;28;20610;-70
2021/11/07 11:45:43;;;;;;;12.13;3.30;;;18.80;99.90;;;;;;5072266;28;20211;-70
2021/11/07 11:54:09;;;;;;;14.07;3.87;;;18.90;99.90;;;;;;5089911;28;20262;-69
2021/11/07 11:59:29;;;;;;;16.87;4.00;;;19.00;99.90;;;;;;5089053;28;20184;-69
2021/11/07 12:02:18;;;;;;;13.23;3.93;;;18.90;99.90;;;;;;5073674;28;20233;-70
2021/11/07 12:08:03;;;;;;;16.77;4.63;;;19.00;99.90;;;;;;5089216;28;20220;-70
2021/11/07 12:10:35;;;;;;;17.77;4.37;;;19.00;99.90;;;;;;5092475;28;20170;-70
2021/11/07 12:13:57;;;;;;;17.47;3.83;;;19.00;99.90;;;;;;5087800;28;20219;-70
2021/11/07 12:16:53;;;;;;;18.20;5.07;;;18.90;99.90;;;;;;5078037;28;20175;-70
2021/11/07 12:19:29;;;;;;;13.77;5.03;;;18.90;99.90;;;;;;5082073;28;20205;-69
2021/11/07 12:22:00;;;;;;;17.30;5.43;;;18.90;99.90;;;;;;5084053;28;20551;-69
2021/11/07 12:24:38;;;;;;;18.37;5.53;;;18.80;99.90;;;;;;5092529;28;20217;-69
2021/11/07 12:27:37;;;;;;;15.13;5.70;;;18.90;99.90;;;;;;5092341;28;20220;-68
2021/11/07 12:30:19;;;;;;;13.83;6.10;;;18.90;99.90;;;;;;5092139;28;20185;-69
2021/11/07 12:32:49;;;;;;;12.33;5.10;;;18.80;99.90;;;;;;5092211;28;20183;-69
2021/11/07 12:35:37;;;;;;;20.73;5.83;;;18.80;99.90;;;;;;5084410;28;20536;-69
2021/11/07 12:41:27;;;;;;;14.63;5.70;;;18.90;99.90;;;;;;5092192;28;20196;-69
2021/11/07 12:44:01;;;;;;;13.27;5.70;;;18.90;99.90;;;;;;5088536;28;20603;-68
2021/11/07 12:46:46;;;;;;;16.90;5.23;;;18.90;99.90;;;;;;5070536;28;20191;-68
2021/11/07 12:49:17;;;;;;;10.33;4.33;;;18.90;99.90;;;;;;5093404;28;20257;-68
2021/11/07 12:51:51;;;;;;;9.50;4.40;;;18.90;99.90;;;;;;5095906;28;20287;-68
2021/11/07 12:54:25;;;;;;;12.57;5.33;;;18.90;99.90;;;;;;5089964;28;20190;-67
2021/11/07 12:56:58;;;;;;;11.70;4.67;;;18.90;99.90;;;;;;5076091;28;20193;-68
2021/11/07 12:59:33;;;;;;;14.63;5.20;;;18.90;99.90;;;;;;5067638;28;20189;-68
2021/11/07 13:02:09;;;;;;;14.43;4.90;;;18.90;99.90;;;;;;5075607;28;20302;-69
2021/11/07 13:04:48;;;;;;;13.70;5.93;;;18.90;99.90;;;;;;5073612;28;20175;-69
2021/11/07 13:07:29;;;;;;;13.57;5.80;;;18.90;99.90;;;;;;5075383;28;20559;-69
2021/11/07 13:10:01;;;;;;;18.53;5.27;;;19.00;99.90;;;;;;5068271;28;20203;-69
2021/11/07 13:12:40;;;;;;;11.60;5.17;;;18.90;99.90;;;;;;5074972;28;20717;-68
2021/11/07 13:20:48;;;;;;;11.43;4.67;;;18.90;99.90;;;;;;5075399;28;20217;-68
2021/11/07 13:26:06;;;;;;;13.17;4.93;;;18.90;99.90;;;;;;5074745;28;20178;-68
2021/11/07 13:28:40;;;;;;;11.70;4.70;;;18.90;99.90;;;;;;5054701;28;20206;-68
2021/11/07 13:31:19;;;;;;;10.90;4.17;;;18.80;99.90;;;;;;5072817;28;20186;-68
2021/11/07 13:33:47;;;;;;;16.23;5.30;;;18.90;99.90;;;;;;5073292;28;20175;-69
2021/11/07 13:36:17;;;;;;;12.87;5.27;;;18.80;99.90;;;;;;5074725;28;20199;-69
2021/11/07 13:38:53;;;;;;;14.43;5.17;;;18.90;99.90;;;;;;5074947;28;20242;-68
2021/11/07 13:41:25;;;;;;;15.97;5.47;;;18.90;99.90;;;;;;5074463;28;20175;-68
2021/11/07 13:44:07;;;;;;;13.27;5.43;;;18.80;99.90;;;;;;5074780;28;20658;-68
2021/11/07 13:46:37;;;;;;;13.20;5.20;;;18.90;99.90;;;;;;5074250;28;20180;-68
2021/11/07 13:49:07;;;;;;;15.00;5.70;;;18.90;99.90;;;;;;5079646;28;20174;-68
2021/11/07 13:52:00;;;;;;;16.23;5.23;;;18.80;99.90;;;;;;5077656;28;20698;-69
2021/11/07 13:54:29;;;;;;;8.20;4.23;;;18.80;99.90;;;;;;5095044;28;20171;-68
2021/11/07 13:56:56;;;;;;;14.90;4.50;;;18.80;99.90;;;;;;5084744;28;20179;-69
2021/11/07 13:59:30;;;;;;;12.10;5.53;;;18.80;99.90;;;;;;5070999;28;20267;-68
2021/11/07 14:01:58;;;;;;;17.37;5.40;;;18.80;99.90;;;;;;5074098;28;20245;-68
2021/11/07 14:04:37;;;;;;;15.07;5.37;;;18.80;99.90;;;;;;5073777;28;20194;-68
2021/11/07 14:07:24;;;;;;;16.10;5.30;;;18.80;99.90;;;;;;5073507;28;20182;-67
2021/11/07 14:10:12;;;;;;;9.90;4.77;;;18.80;99.90;;;;;;5074171;28;20171;-68
2021/11/07 14:12:46;;;;;;;14.80;5.73;;;18.80;99.90;;;;;;5066066;28;20265;-68
2021/11/07 14:15:18;;;;;;;11.67;4.67;;;18.80;99.90;;;;;;5070239;28;20664;-68
2021/11/07 14:17:47;;;;;;;15.20;4.70;;;18.80;99.90;;;;;;5073966;28;20611;-69
2021/11/07 14:20:33;;;;;;;11.17;4.60;;;18.80;99.90;;;;;;5074165;28;20774;-68
2021/11/07 14:23:16;;;;;;;11.97;4.27;;;18.70;99.90;;;;;;5073530;28;20309;-68
2021/11/07 14:26:10;;;;;;;14.33;5.30;;;18.80;99.90;;;;;;5073697;28;20175;-68
2021/11/07 14:32:12;;;;;;;10.07;4.33;;;18.70;99.90;;;;;;5070034;28;20189;-68
2021/11/07 14:37:44;;;;;;;9.63;4.37;;;18.70;99.90;;;;;;5073751;28;20252;-67
2021/11/07 14:40:21;;;;;;;12.60;4.90;;;18.70;99.90;;;;;;5073817;28;20183;-69
2021/11/07 14:43:06;;;;;;;14.10;4.37;;;18.70;99.90;;;;;;5073344;28;20260;-68
2021/11/07 14:45:45;;;;;;;13.10;4.03;;;18.70;99.90;;;;;;5071393;28;20654;-67
2021/11/07 14:56:54;;;;;;;14.37;4.00;;;18.70;99.90;;;;;;5093468;28;20279;-66
2021/11/07 15:02:03;;;;;;;13.63;4.77;;;18.60;99.90;;;;;;5093299;28;20603;-66
2021/11/07 15:07:43;;;;;;;10.63;4.27;;;18.60;99.90;;;;;;5082235;28;20214;-66
2021/11/07 15:13:46;;;;;;;11.53;4.57;;;18.60;99.90;;;;;;5073623;28;20237;-66
2021/11/07 15:16:36;;;;;;;10.47;4.37;;;18.60;99.90;;;;;;5077100;28;20722;-66